This is the latest recevied weather packets stored in our database for station/object KR8N. If no packets are shown the sender has not sent any weather packets the latest 10 day(s).
| Time | Temp. | Humidity | Pressure | Rain* | Wind** | Luminosity | Snow |
|---|---|---|---|---|---|---|---|
| 1777489190 | 20.56° C | 73% | 1010.9 hPa | 0 mm | - | 249 W/m² | - |
| 1777488887 | 20.56° C | 73% | 1011.1 hPa | 0 mm | - | 307 W/m² | - |
| 1777488584 | 20.56° C | 73% | 1011.1 hPa | 0 mm | - | 942 W/m² | - |
| 1777488282 | 20.56° C | 73% | 1011.3 hPa | 0 mm | - | 564 W/m² | - |
| 1777487980 | 20.56° C | 74% | 1011.3 hPa | 0 mm | - | 456 W/m² | - |
| 1777487677 | 20° C | 78% | 1011.6 hPa | 0 mm | - | 1348 W/m² | - |
| 1777487374 | 19.44° C | 79% | 1011.7 hPa | 0 mm | - | 715 W/m² | - |
| 1777487072 | 19.44° C | 79% | 1011.7 hPa | 0 mm | - | 472 W/m² | - |
| 1777486767 | 19.44° C | 79% | 1012 hPa | 0 mm | - | 501 W/m² | - |
| 1777486466 | 19.44° C | 83% | 1012 hPa | 0 mm | - | 552 W/m² | - |
| 1777486163 | 18.89° C | 83% | 1011.9 hPa | 0 mm | - | 268 W/m² | - |
| 1777485860 | 18.89° C | 79% | 1012 hPa | 0 mm | - | 465 W/m² | - |
| 1777485560 | 20° C | 77% | 1012 hPa | 0 mm | - | 240 W/m² | - |
| 1777485257 | 19.44° C | 80% | 1011.8 hPa | 0 mm | - | 484 W/m² | - |
| 1777484953 | 18.89° C | 81% | 1012 hPa | 0 mm | - | 635 W/m² | - |
| 1777484650 | 18.89° C | 84% | 1012.1 hPa | 0 mm | - | 250 W/m² | - |
| 1777484347 | 18.33° C | 86% | 1012 hPa | 0 mm | - | 403 W/m² | - |
| 1777484042 | 18.33° C | 84% | 1012.3 hPa | 0 mm | - | 204 W/m² | - |
| 1777483739 | 18.33° C | 84% | 1012.2 hPa | 0 mm | - | 176 W/m² | - |
| 1777483435 | 18.33° C | 84% | 1012.3 hPa | 0 mm | - | 212 W/m² | - |
| 1777483130 | 19.44° C | 82% | 1012.4 hPa | 0 mm | - | 202 W/m² | - |
| 1777482828 | 19.44° C | 85% | 1012.5 hPa | 0 mm | - | 336 W/m² | - |
| 1777482523 | 18.89° C | 87% | 1012.5 hPa | 0 mm | - | 649 W/m² | - |
| 1777482221 | 18.33° C | 88% | 1012.6 hPa | 0 mm | - | 575 W/m² | - |
| 1777481918 | 17.78° C | 89% | 1012.8 hPa | 0 mm | - | 485 W/m² | - |
* Rain latest hour (hover to see other rain measurements)
** Current wind speed in m/s (hover to see current wind gust speed)